Time;durP1;ratioP1;P1;durP2;ratioP2;P2;SDS_P1;SDS_P2;PMS_P1;PMS_P2;Temp;Humidity;BMP_temperature;BMP_pressure;BME280_temperature;BME280_humidity;BME280_pressure;Samples;Min_cycle;Max_cycle;Signal;HPM_P1;HPM_P2
2022/08/25 00:00:11;;;;;;;14.65;11.07;;;19.40;99.90;;;;;;5098659;28;20036;-66
2022/08/25 00:02:39;;;;;;;15.07;11.57;;;19.40;99.90;;;;;;5116042;27;20561;-66
2022/08/25 00:05:06;;;;;;;13.00;10.80;;;19.40;99.90;;;;;;5096686;27;20036;-65
2022/08/25 00:07:35;;;;;;;15.50;11.02;;;19.30;99.90;;;;;;5113069;27;20044;-66
2022/08/25 00:10:06;;;;;;;15.95;10.95;;;19.30;99.90;;;;;;5117939;27;20035;-65
2022/08/25 00:12:34;;;;;;;16.65;11.55;;;19.30;99.90;;;;;;5108910;27;20077;-64
2022/08/25 00:15:01;;;;;;;15.52;10.98;;;19.30;99.90;;;;;;5121058;27;20092;-65
2022/08/25 00:17:28;;;;;;;15.73;11.48;;;19.30;99.90;;;;;;5108402;28;20035;-65
2022/08/25 00:19:55;;;;;;;15.02;11.57;;;19.20;99.90;;;;;;5117714;27;20575;-65
2022/08/25 00:22:23;;;;;;;16.20;12.00;;;19.20;99.90;;;;;;5118605;28;20039;-66
2022/08/25 00:24:50;;;;;;;13.85;11.65;;;19.20;99.90;;;;;;5114363;28;20051;-65
2022/08/25 00:27:17;;;;;;;16.73;12.60;;;19.20;99.90;;;;;;5115561;27;20561;-66
2022/08/25 00:29:45;;;;;;;16.23;12.35;;;19.20;99.90;;;;;;5116059;28;20040;-65
2022/08/25 00:32:12;;;;;;;15.82;11.52;;;19.20;99.90;;;;;;5125272;27;20054;-65
2022/08/25 00:34:39;;;;;;;16.38;11.75;;;19.20;99.90;;;;;;5106312;28;20067;-66
2022/08/25 00:37:09;;;;;;;14.20;10.65;;;19.10;99.90;;;;;;5109214;28;20044;-66
2022/08/25 00:39:38;;;;;;;13.88;10.75;;;19.10;99.90;;;;;;5124575;27;20043;-67
2022/08/25 00:42:07;;;;;;;14.15;11.45;;;19.20;99.90;;;;;;5092303;28;20408;-67
2022/08/25 00:44:42;;;;;;;15.45;12.20;;;19.10;99.90;;;;;;5098360;28;20052;-66
2022/08/25 00:47:10;;;;;;;13.48;10.65;;;19.10;99.90;;;;;;5102020;28;20040;-65
2022/08/25 00:49:57;;;;;;;15.90;11.73;;;19.10;99.90;;;;;;5092421;28;20447;-65
2022/08/25 00:52:47;;;;;;;17.35;11.48;;;19.10;99.90;;;;;;5115312;27;20210;-67
2022/08/25 00:55:32;;;;;;;15.15;11.50;;;19.10;99.90;;;;;;5125787;27;20658;-65
2022/08/25 00:58:13;;;;;;;14.65;11.32;;;19.10;99.90;;;;;;5103453;28;20071;-65
2022/08/25 01:00:47;;;;;;;15.82;11.57;;;19.00;99.90;;;;;;5102364;28;20079;-67
2022/08/25 01:03:18;;;;;;;17.60;12.55;;;19.00;99.90;;;;;;5087144;28;20100;-65
2022/08/25 01:05:47;;;;;;;15.10;11.88;;;19.00;99.90;;;;;;5097536;28;20043;-66
2022/08/25 01:08:15;;;;;;;14.32;11.18;;;19.00;99.90;;;;;;5129262;27;20036;-65
2022/08/25 01:10:44;;;;;;;16.25;11.98;;;19.00;99.90;;;;;;5131083;27;20043;-65
2022/08/25 01:14:01;;;;;;;14.60;11.55;;;19.00;99.90;;;;;;5113539;27;20138;-66
2022/08/25 01:16:29;;;;;;;17.50;12.75;;;18.90;99.90;;;;;;5066376;28;20049;-66
2022/08/25 01:18:59;;;;;;;15.73;11.93;;;18.90;99.90;;;;;;5066456;28;20603;-65
2022/08/25 01:21:28;;;;;;;16.70;12.07;;;18.90;99.90;;;;;;5044917;28;20053;-65
2022/08/25 01:23:58;;;;;;;17.95;12.57;;;18.80;99.90;;;;;;5038958;28;20040;-65
2022/08/25 01:26:29;;;;;;;16.73;11.63;;;18.80;99.90;;;;;;5050939;28;20106;-66
2022/08/25 01:31:49;;;;;;;16.73;11.82;;;18.80;99.90;;;;;;5051202;28;20090;-66
2022/08/25 01:34:18;;;;;;;15.63;12.70;;;18.80;99.90;;;;;;5051352;28;20059;-66
2022/08/25 01:36:45;;;;;;;15.07;11.77;;;18.70;99.90;;;;;;5029275;28;20049;-66
2022/08/25 01:39:13;;;;;;;15.20;12.65;;;18.70;99.90;;;;;;5065034;28;20182;-66
2022/08/25 01:42:10;;;;;;;18.00;12.05;;;18.70;99.90;;;;;;5064715;28;20136;-66
2022/08/25 01:44:42;;;;;;;15.55;12.48;;;18.70;99.90;;;;;;5049686;28;20988;-66
2022/08/25 01:47:11;;;;;;;15.25;12.35;;;18.60;99.90;;;;;;5075845;28;20470;-66
2022/08/25 01:49:38;;;;;;;16.10;13.02;;;18.60;99.90;;;;;;5103716;27;20454;-65
2022/08/25 01:52:18;;;;;;;16.58;13.15;;;18.60;99.90;;;;;;5112535;27;20399;-66
2022/08/25 01:54:47;;;;;;;15.88;12.00;;;18.60;99.90;;;;;;5110647;27;20035;-66
2022/08/25 01:57:14;;;;;;;17.10;12.88;;;18.60;99.90;;;;;;5113561;27;20470;-68
2022/08/25 01:59:42;;;;;;;17.80;12.57;;;18.60;99.90;;;;;;5119058;27;20377;-66
2022/08/25 02:02:10;;;;;;;17.00;13.32;;;18.60;99.90;;;;;;5114385;27;20507;-66
2022/08/25 02:04:38;;;;;;;17.90;12.38;;;18.50;99.90;;;;;;5107104;27;20415;-68
2022/08/25 02:07:10;;;;;;;16.15;12.35;;;18.50;99.90;;;;;;5105517;27;20051;-66
2022/08/25 02:09:38;;;;;;;16.55;12.95;;;18.50;99.90;;;;;;5086026;27;20071;-67
2022/08/25 02:12:08;;;;;;;16.42;12.70;;;18.50;99.90;;;;;;5114233;27;20078;-66
2022/08/25 02:14:36;;;;;;;19.30;13.80;;;18.40;99.90;;;;;;5116698;27;20055;-67
2022/08/25 02:17:05;;;;;;;17.85;13.38;;;18.40;99.90;;;;;;5116709;27;20035;-66
2022/08/25 02:19:32;;;;;;;17.45;13.45;;;18.40;99.90;;;;;;5114131;27;20143;-67
2022/08/25 02:22:00;;;;;;;18.92;13.82;;;18.40;99.90;;;;;;5123758;27;20541;-66
2022/08/25 02:24:28;;;;;;;18.98;13.80;;;18.40;99.90;;;;;;5104550;27;20498;-66
2022/08/25 02:26:56;;;;;;;16.65;13.77;;;18.40;99.90;;;;;;5109145;27;20102;-66
2022/08/25 02:29:24;;;;;;;17.65;13.60;;;18.40;99.90;;;;;;5107446;27;20093;-66
2022/08/25 02:31:51;;;;;;;17.77;13.00;;;18.30;99.90;;;;;;5124605;27;20580;-67
2022/08/25 02:34:19;;;;;;;18.40;14.30;;;18.30;99.90;;;;;;5109536;28;20055;-66
2022/08/25 02:36:46;;;;;;;17.17;13.13;;;18.40;99.90;;;;;;5121453;27;20500;-66
2022/08/25 02:39:13;;;;;;;18.55;13.70;;;18.30;99.90;;;;;;5110624;27;20051;-66
2022/08/25 02:41:41;;;;;;;16.20;12.18;;;18.30;99.90;;;;;;5106294;27;20047;-67
2022/08/25 02:44:09;;;;;;;18.60;12.98;;;18.30;99.90;;;;;;5115199;27;20035;-66
2022/08/25 02:46:37;;;;;;;18.83;13.57;;;18.30;99.90;;;;;;5115143;27;20561;-66
2022/08/25 02:49:05;;;;;;;19.17;12.85;;;18.30;99.90;;;;;;5116345;27;20043;-66
2022/08/25 02:51:33;;;;;;;17.95;14.00;;;18.30;99.90;;;;;;5116146;27;20047;-66
2022/08/25 02:54:04;;;;;;;18.15;14.20;;;18.30;99.90;;;;;;5115409;27;20665;-66
2022/08/25 02:56:31;;;;;;;22.23;13.50;;;18.30;99.90;;;;;;5118557;27;20078;-66
2022/08/25 02:59:00;;;;;;;17.90;14.05;;;18.30;99.90;;;;;;5120438;27;20081;-66
2022/08/25 03:01:28;;;;;;;17.92;14.55;;;18.30;99.90;;;;;;5120677;27;20565;-66
2022/08/25 03:03:56;;;;;;;18.48;14.80;;;18.20;99.90;;;;;;5119484;27;20047;-66
2022/08/25 03:06:24;;;;;;;18.52;14.25;;;18.20;99.90;;;;;;5095331;27;20158;-67
2022/08/25 03:08:52;;;;;;;20.00;14.40;;;18.20;99.90;;;;;;5109620;27;20114;-67
2022/08/25 03:11:19;;;;;;;18.23;14.50;;;18.10;99.90;;;;;;5109556;27;20434;-66
2022/08/25 03:13:49;;;;;;;19.13;14.98;;;18.10;99.90;;;;;;5104656;28;20108;-66
2022/08/25 03:16:17;;;;;;;20.48;14.82;;;18.10;99.90;;;;;;5089189;27;20124;-66
2022/08/25 03:18:45;;;;;;;21.85;15.13;;;18.10;99.90;;;;;;5100165;27;20032;-66
2022/08/25 03:21:14;;;;;;;19.38;14.93;;;18.10;99.90;;;;;;5110199;27;20396;-66
2022/08/25 03:23:42;;;;;;;18.27;14.75;;;18.00;99.90;;;;;;5119274;27;20043;-67
2022/08/25 03:28:56;;;;;;;21.25;15.27;;;18.00;99.90;;;;;;5092238;27;20491;-66
2022/08/25 03:31:26;;;;;;;19.73;14.30;;;18.00;99.90;;;;;;5115019;27;20039;-66
2022/08/25 03:33:54;;;;;;;18.67;14.07;;;17.90;99.90;;;;;;5109774;27;20054;-66
2022/08/25 03:36:22;;;;;;;16.60;13.18;;;17.90;99.90;;;;;;5113310;27;20083;-67
2022/08/25 03:38:51;;;;;;;19.92;14.35;;;17.80;99.90;;;;;;5107542;27;20035;-69
2022/08/25 03:41:31;;;;;;;18.75;14.40;;;17.70;99.90;;;;;;5101562;27;20561;-67
2022/08/25 03:43:59;;;;;;;20.83;14.45;;;17.70;99.90;;;;;;5112674;27;20050;-67
2022/08/25 03:46:33;;;;;;;18.02;13.65;;;17.70;99.90;;;;;;5110594;27;20059;-66
2022/08/25 03:49:02;;;;;;;19.65;14.70;;;17.60;99.90;;;;;;5106880;28;20134;-66
2022/08/25 03:51:34;;;;;;;19.63;14.07;;;17.60;99.90;;;;;;5097036;27;20598;-66
2022/08/25 03:54:03;;;;;;;18.23;13.80;;;17.50;99.90;;;;;;5110789;27;20055;-66
2022/08/25 03:56:31;;;;;;;17.13;13.38;;;17.50;99.90;;;;;;5110587;27;20524;-66
2022/08/25 03:58:58;;;;;;;18.73;13.07;;;17.50;99.90;;;;;;5108474;27;20059;-66
2022/08/25 04:01:26;;;;;;;22.52;15.57;;;17.50;99.90;;;;;;5111390;27;20122;-66
2022/08/25 04:03:53;;;;;;;20.58;15.10;;;17.50;99.90;;;;;;5101546;28;21752;-65
2022/08/25 04:06:22;;;;;;;21.15;14.43;;;17.40;99.90;;;;;;5095927;28;20070;-66
2022/08/25 04:08:51;;;;;;;20.75;15.35;;;17.40;99.90;;;;;;5123891;27;20190;-67
2022/08/25 04:11:21;;;;;;;23.15;15.23;;;17.40;99.90;;;;;;5118418;27;20043;-66
2022/08/25 04:13:50;;;;;;;19.98;14.90;;;17.30;99.90;;;;;;5121473;27;20425;-67
2022/08/25 04:16:21;;;;;;;18.58;14.50;;;17.30;99.90;;;;;;5107453;27;20122;-66
2022/08/25 04:18:51;;;;;;;18.97;14.47;;;17.30;99.90;;;;;;5120760;27;20083;-66
2022/08/25 04:21:20;;;;;;;19.45;14.60;;;17.30;99.90;;;;;;5118432;28;20409;-66
2022/08/25 04:23:49;;;;;;;22.08;16.08;;;17.30;99.90;;;;;;5121651;28;20126;-67
2022/08/25 04:26:31;;;;;;;21.50;15.88;;;17.30;99.90;;;;;;5116928;27;20047;-66
2022/08/25 04:28:59;;;;;;;21.67;16.17;;;17.30;99.90;;;;;;5121746;27;20126;-65
2022/08/25 04:31:28;;;;;;;19.55;16.15;;;17.30;99.90;;;;;;5098490;28;20044;-66
2022/08/25 04:33:56;;;;;;;21.95;14.57;;;17.30;99.90;;;;;;5098996;28;20051;-66
2022/08/25 04:36:23;;;;;;;22.70;16.05;;;17.30;99.90;;;;;;5125356;28;20505;-65
2022/08/25 04:38:51;;;;;;;21.40;15.48;;;17.30;99.90;;;;;;5110749;28;20084;-66
2022/08/25 04:41:20;;;;;;;22.77;16.52;;;17.30;99.90;;;;;;5104518;27;20552;-66
2022/08/25 04:43:48;;;;;;;20.63;14.95;;;17.30;99.90;;;;;;5106951;27;20036;-66
2022/08/25 04:46:21;;;;;;;22.95;14.77;;;17.40;99.90;;;;;;5105476;27;20043;-67
2022/08/25 04:48:50;;;;;;;21.58;15.77;;;17.40;99.90;;;;;;5104161;28;20031;-66
2022/08/25 04:51:22;;;;;;;22.17;14.30;;;17.40;99.90;;;;;;5116783;27;20049;-66
2022/08/25 04:53:50;;;;;;;19.15;15.30;;;17.50;99.90;;;;;;5111513;27;20108;-66
2022/08/25 04:56:20;;;;;;;23.58;15.65;;;17.50;99.90;;;;;;5122373;27;20479;-65
2022/08/25 04:58:48;;;;;;;24.65;15.75;;;17.50;99.90;;;;;;5119234;27;20094;-65
2022/08/25 05:01:18;;;;;;;22.58;16.45;;;17.50;99.90;;;;;;5116374;27;21544;-67
2022/08/25 05:03:51;;;;;;;19.63;15.00;;;17.50;99.90;;;;;;5106497;27;20073;-66
2022/08/25 05:06:18;;;;;;;21.27;15.55;;;17.60;99.90;;;;;;5094870;27;20402;-69
2022/08/25 05:08:46;;;;;;;20.38;15.38;;;17.70;99.90;;;;;;5121783;27;20039;-65
2022/08/25 05:11:16;;;;;;;20.27;15.13;;;17.70;99.90;;;;;;5100076;27;20081;-66
2022/08/25 05:13:45;;;;;;;20.23;15.45;;;17.80;99.90;;;;;;5112422;27;20460;-66
2022/08/25 05:16:19;;;;;;;24.50;15.13;;;17.80;99.90;;;;;;5111549;27;20050;-66
2022/08/25 05:18:47;;;;;;;20.58;14.75;;;17.90;99.90;;;;;;5104038;28;20418;-66
2022/08/25 05:21:21;;;;;;;25.92;16.63;;;18.00;99.90;;;;;;5093426;27;20133;-65
2022/08/25 05:23:48;;;;;;;20.33;15.50;;;18.10;99.90;;;;;;5092226;28;20101;-65
2022/08/25 05:26:22;;;;;;;19.77;14.48;;;18.10;99.90;;;;;;5104343;27;20130;-67
2022/08/25 05:28:53;;;;;;;22.80;16.63;;;18.20;99.90;;;;;;5091142;28;20048;-65
2022/08/25 05:31:22;;;;;;;19.33;14.48;;;18.30;99.90;;;;;;5097840;27;20071;-66
2022/08/25 05:33:50;;;;;;;21.30;15.38;;;18.40;99.90;;;;;;5112508;27;20162;-65
2022/08/25 05:36:19;;;;;;;20.30;14.98;;;18.40;99.90;;;;;;5117193;27;20139;-66
2022/08/25 05:38:46;;;;;;;21.05;16.58;;;18.50;99.90;;;;;;5106387;27;20512;-67
2022/08/25 05:41:18;;;;;;;20.05;15.52;;;18.60;99.90;;;;;;5126977;27;20401;-66
2022/08/25 05:43:47;;;;;;;21.27;15.98;;;18.70;99.90;;;;;;5124459;27;20457;-67
2022/08/25 05:46:16;;;;;;;20.17;15.05;;;18.70;99.90;;;;;;5127058;27;20050;-66
2022/08/25 05:48:44;;;;;;;22.27;14.63;;;18.80;99.90;;;;;;5109107;27;20170;-65
2022/08/25 05:51:12;;;;;;;29.05;17.55;;;18.90;99.90;;;;;;5123093;27;20191;-66
2022/08/25 05:53:42;;;;;;;25.42;17.95;;;18.90;99.90;;;;;;5097464;28;20039;-66
2022/08/25 05:56:10;;;;;;;23.05;16.13;;;19.00;99.90;;;;;;5100472;27;20525;-66
2022/08/25 05:58:37;;;;;;;21.20;15.80;;;19.00;99.90;;;;;;5097183;27;20438;-66
2022/08/25 06:03:54;;;;;;;20.98;15.48;;;19.20;99.90;;;;;;5096277;27;20043;-65
2022/08/25 06:06:23;;;;;;;21.25;15.35;;;19.20;99.90;;;;;;5110031;27;20047;-65
2022/08/25 06:08:50;;;;;;;21.88;15.68;;;19.30;99.90;;;;;;5121857;27;20062;-66
2022/08/25 06:11:18;;;;;;;23.08;15.50;;;19.40;99.90;;;;;;5122185;27;20057;-66
2022/08/25 06:13:45;;;;;;;20.80;14.48;;;19.50;99.90;;;;;;5113208;27;20075;-66
2022/08/25 06:16:12;;;;;;;20.77;15.15;;;19.60;99.90;;;;;;5120415;27;20047;-66
2022/08/25 06:18:40;;;;;;;20.10;15.38;;;19.70;99.90;;;;;;5113820;27;20701;-66
2022/08/25 06:21:12;;;;;;;18.65;14.70;;;19.80;99.90;;;;;;5094134;27;20134;-69
2022/08/25 06:23:39;;;;;;;;;;;19.90;99.90;;;;;;5095652;27;20052;-66
2022/08/25 06:26:10;;;;;;;20.70;14.52;;;20.00;99.90;;;;;;5116431;27;19926;-64
2022/08/25 06:28:47;;;;;;;20.65;15.32;;;20.20;99.90;;;;;;5116564;27;20047;-66
2022/08/25 06:31:15;;;;;;;18.73;14.35;;;20.30;99.90;;;;;;5121593;27;20125;-66
2022/08/25 06:33:43;;;;;;;18.63;14.55;;;20.40;99.90;;;;;;5113355;27;20040;-65
2022/08/25 06:36:11;;;;;;;20.52;15.50;;;20.50;99.90;;;;;;5109803;28;20047;-65
2022/08/25 06:38:38;;;;;;;22.10;15.75;;;20.70;99.90;;;;;;5107901;28;20059;-66
2022/08/25 06:41:09;;;;;;;19.13;15.05;;;20.70;99.90;;;;;;5101319;27;20562;-66
2022/08/25 06:43:38;;;;;;;19.75;16.15;;;20.70;99.90;;;;;;5122621;27;20485;-65
2022/08/25 06:46:13;;;;;;;21.70;16.67;;;20.90;99.90;;;;;;5104544;27;20046;-66
2022/08/25 06:48:41;;;;;;;21.25;16.00;;;21.00;99.90;;;;;;5123062;27;20039;-66
2022/08/25 06:51:12;;;;;;;21.88;16.85;;;21.10;99.90;;;;;;5124567;27;20027;-65
2022/08/25 06:53:41;;;;;;;21.27;16.70;;;21.20;99.90;;;;;;5123928;27;20505;-67
2022/08/25 06:56:09;;;;;;;28.00;19.80;;;21.40;99.90;;;;;;5122169;27;20564;-66
2022/08/25 06:58:37;;;;;;;21.75;16.65;;;21.40;99.90;;;;;;5114724;27;20492;-66
2022/08/25 07:01:18;;;;;;;19.92;15.90;;;21.60;99.90;;;;;;5106515;27;20146;-67
2022/08/25 07:03:47;;;;;;;20.42;15.95;;;21.60;99.90;;;;;;5123963;27;20043;-66
2022/08/25 07:06:18;;;;;;;21.02;16.77;;;21.70;99.90;;;;;;5100714;27;20149;-65
2022/08/25 07:08:46;;;;;;;19.00;15.35;;;21.80;99.90;;;;;;5114743;27;20153;-66
2022/08/25 07:11:15;;;;;;;18.45;14.93;;;21.80;99.90;;;;;;5117840;27;20521;-65
2022/08/25 07:13:44;;;;;;;18.67;14.15;;;22.00;99.90;;;;;;5097473;27;20047;-67
2022/08/25 07:16:14;;;;;;;17.50;14.35;;;22.20;99.90;;;;;;5107910;27;20094;-67
2022/08/25 07:18:42;;;;;;;18.42;14.27;;;22.30;99.90;;;;;;5095106;27;20141;-66
2022/08/25 07:21:11;;;;;;;22.02;14.85;;;22.50;99.90;;;;;;5112285;27;20482;-65
2022/08/25 07:23:40;;;;;;;15.68;13.50;;;22.60;99.90;;;;;;5116151;27;20083;-66
2022/08/25 07:26:17;;;;;;;18.83;14.23;;;22.70;99.90;;;;;;5111326;27;20127;-66
2022/08/25 07:29:10;;;;;;;18.25;13.93;;;22.90;99.90;;;;;;5112778;27;20036;-65
2022/08/25 07:31:37;;;;;;;15.38;13.10;;;23.00;99.90;;;;;;5121572;27;20126;-65
2022/08/25 07:36:54;;;;;;;17.38;13.88;;;23.20;99.90;;;;;;5127121;27;20043;-67
2022/08/25 07:39:22;;;;;;;17.42;12.93;;;23.40;99.90;;;;;;5098756;27;20517;-67
2022/08/25 07:41:50;;;;;;;16.63;13.35;;;23.60;99.90;;;;;;5111971;27;20564;-67
2022/08/25 07:44:20;;;;;;;14.93;13.30;;;23.80;99.90;;;;;;5112784;27;20257;-65
2022/08/25 07:46:49;;;;;;;14.85;13.25;;;24.00;99.90;;;;;;5099116;27;20542;-66
2022/08/25 07:49:21;;;;;;;16.98;13.90;;;23.90;99.90;;;;;;5097158;27;20043;-67
2022/08/25 07:51:53;;;;;;;15.40;13.30;;;24.10;99.90;;;;;;5100937;27;20054;-64
2022/08/25 07:54:32;;;;;;;;;;;24.20;99.90;;;;;;5115701;27;20039;-66
2022/08/25 07:57:05;;;;;;;15.02;13.50;;;24.20;99.90;;;;;;5107694;27;20014;-65
2022/08/25 07:59:32;;;;;;;;;;;24.20;99.90;;;;;;5115268;27;20548;-66
2022/08/25 08:02:08;;;;;;;18.40;12.52;;;24.10;99.90;;;;;;5098305;28;19923;-66
2022/08/25 08:04:51;;;;;;;17.60;12.57;;;24.30;99.90;;;;;;5109036;27;20601;-67
2022/08/25 08:07:22;;;;;;;16.52;13.23;;;24.30;99.90;;;;;;5092606;27;20055;-69
2022/08/25 08:10:10;;;;;;;21.63;13.05;;;24.40;99.90;;;;;;5091265;27;20490;-67
2022/08/25 08:12:57;;;;;;;15.27;13.15;;;24.60;99.90;;;;;;5098371;28;20072;-68
2022/08/25 08:15:25;;;;;;;13.90;12.50;;;24.80;99.90;;;;;;5096691;27;20287;-66
2022/08/25 08:17:57;;;;;;;14.13;12.63;;;24.90;99.90;;;;;;5092230;27;20117;-65
2022/08/25 08:20:27;;;;;;;14.63;12.80;;;24.70;99.90;;;;;;5100301;28;20556;-66
2022/08/25 08:22:55;;;;;;;16.15;13.13;;;24.70;99.90;;;;;;5110745;28;20046;-68
2022/08/25 08:25:22;;;;;;;14.60;12.57;;;24.60;99.90;;;;;;5074480;28;20489;-67
2022/08/25 08:27:54;;;;;;;15.20;12.77;;;24.70;99.90;;;;;;5107339;28;20084;-66
2022/08/25 08:30:22;;;;;;;17.98;13.13;;;24.90;99.90;;;;;;5120980;28;20100;-68
2022/08/25 08:32:53;;;;;;;15.48;13.80;;;24.90;99.90;;;;;;5113165;28;20044;-65
2022/08/25 08:35:39;;;;;;;15.77;13.80;;;25.00;99.90;;;;;;5116544;27;20051;-66
2022/08/25 08:38:08;;;;;;;14.40;12.57;;;25.20;99.90;;;;;;5106576;28;20031;-70
2022/08/25 08:42:15;;;;;;;14.95;12.40;;;25.30;99.90;;;;;;5118223;27;20053;-65
2022/08/25 08:43:42;;;;;;;13.85;12.35;;;25.50;99.90;;;;;;5125164;27;20051;-65
2022/08/25 08:46:10;;;;;;;13.57;11.85;;;25.50;99.90;;;;;;5126252;27;20047;-67
2022/08/25 08:48:49;;;;;;;14.32;12.50;;;25.50;99.90;;;;;;5111974;28;20129;-66
2022/08/25 08:51:23;;;;;;;13.05;11.63;;;25.70;99.90;;;;;;5092115;28;20055;-66
2022/08/25 08:53:53;;;;;;;13.88;11.77;;;25.70;99.90;;;;;;5107421;28;20097;-66
2022/08/25 08:56:30;;;;;;;13.60;11.50;;;25.70;99.90;;;;;;5106821;28;20067;-66
2022/08/25 08:59:06;;;;;;;12.50;11.20;;;25.80;99.90;;;;;;5108076;27;20428;-66
2022/08/25 09:02:01;;;;;;;14.15;11.55;;;25.90;99.90;;;;;;5094887;28;20477;-65
2022/08/25 09:04:51;;;;;;;15.48;12.95;;;26.00;99.90;;;;;;5108456;28;20089;-65
2022/08/25 09:07:24;;;;;;;14.05;11.90;;;26.00;99.90;;;;;;5093948;27;20044;-65
2022/08/25 09:09:51;;;;;;;13.25;11.85;;;26.20;99.90;;;;;;5111857;28;20051;-66
2022/08/25 09:12:34;;;;;;;12.65;11.32;;;26.40;99.90;;;;;;5076934;28;20044;-66
2022/08/25 09:18:37;;;;;;;15.35;11.23;;;26.90;99.90;;;;;;5085309;28;20071;-67
2022/08/25 09:21:59;;;;;;;17.00;12.00;;;27.00;99.90;;;;;;5113560;28;20431;-66
2022/08/25 09:24:41;;;;;;;12.40;11.18;;;27.30;99.90;;;;;;5110395;28;20066;-67
2022/08/25 09:27:21;;;;;;;13.02;11.70;;;27.70;99.90;;;;;;5104148;27;20060;-65
2022/08/25 09:30:13;;;;;;;16.33;13.82;;;27.90;99.90;;;;;;5109391;27;20067;-64
2022/08/25 09:32:45;;;;;;;12.90;11.70;;;28.20;99.90;;;;;;5123433;27;20039;-65
2022/08/25 09:35:22;;;;;;;12.75;11.45;;;28.40;99.90;;;;;;5109787;28;20051;-65
2022/08/25 09:37:59;;;;;;;13.52;12.20;;;28.80;99.90;;;;;;5099949;27;20143;-65
2022/08/25 09:40:33;;;;;;;12.57;11.38;;;28.90;99.90;;;;;;5120153;27;20051;-66
2022/08/25 09:43:04;;;;;;;12.75;11.55;;;28.90;99.90;;;;;;5097452;27;20039;-65
2022/08/25 09:45:44;;;;;;;13.45;12.20;;;29.10;99.90;;;;;;5103776;27;20505;-66
2022/08/25 09:48:39;;;;;;;18.52;14.20;;;29.00;99.90;;;;;;5107880;27;20093;-65
2022/08/25 09:51:22;;;;;;;14.00;12.25;;;29.00;99.90;;;;;;5097981;27;20167;-67
2022/08/25 09:54:03;;;;;;;13.90;11.35;;;29.00;99.90;;;;;;5109013;27;20043;-66
2022/08/25 09:56:49;;;;;;;14.32;12.05;;;29.10;99.90;;;;;;5098992;28;20093;-65
2022/08/25 09:59:34;;;;;;;13.13;11.93;;;29.20;99.90;;;;;;5094704;27;20051;-65
2022/08/25 10:02:24;;;;;;;12.88;11.57;;;29.40;99.90;;;;;;5096957;28;20044;-65
2022/08/25 10:04:52;;;;;;;13.70;12.27;;;29.60;99.90;;;;;;5101373;27;20804;-65
2022/08/25 10:07:37;;;;;;;14.80;13.50;;;29.60;99.90;;;;;;5097988;27;20113;-65
2022/08/25 10:10:17;;;;;;;14.55;13.15;;;29.60;99.90;;;;;;5104048;27;20512;-64
2022/08/25 10:12:48;;;;;;;14.27;12.98;;;29.70;99.90;;;;;;5101147;27;20057;-65
2022/08/25 10:15:24;;;;;;;14.68;13.27;;;30.00;99.90;;;;;;5108080;27;20054;-68
2022/08/25 10:18:25;;;;;;;18.55;16.13;;;30.20;99.90;;;;;;5111542;27;20116;-66
2022/08/25 10:21:05;;;;;;;15.73;13.13;;;30.80;99.90;;;;;;5093421;27;20074;-65
2022/08/25 10:23:37;;;;;;;15.10;13.65;;;31.10;99.90;;;;;;5101398;27;20134;-64
2022/08/25 10:26:14;;;;;;;14.82;13.43;;;31.40;99.90;;;;;;5099215;27;20040;-66
2022/08/25 10:29:16;;;;;;;15.13;13.70;;;31.80;99.90;;;;;;5092540;27;20143;-64
2022/08/25 10:31:55;;;;;;;;;;;31.60;99.90;;;;;;5106766;27;20513;-67
2022/08/25 10:34:37;;;;;;;15.27;13.75;;;31.60;99.90;;;;;;5098704;27;19924;-65
2022/08/25 10:37:13;;;;;;;14.43;12.98;;;31.70;99.90;;;;;;5107339;27;20434;-63
2022/08/25 10:40:26;;;;;;;13.20;11.90;;;31.60;99.90;;;;;;5096604;27;20490;-64
2022/08/25 10:43:05;;;;;;;12.68;11.48;;;31.70;99.90;;;;;;5054409;28;20044;-64
2022/08/25 10:45:42;;;;;;;14.77;12.65;;;32.00;99.90;;;;;;5059405;28;20150;-63
2022/08/25 10:48:12;;;;;;;15.45;12.18;;;32.30;99.90;;;;;;5065047;28;20489;-63
2022/08/25 10:51:05;;;;;;;13.37;12.03;;;32.00;99.90;;;;;;5057559;28;20044;-64
2022/08/25 10:53:54;;;;;;;15.40;13.10;;;31.90;99.90;;;;;;5081437;28;20541;-64
2022/08/25 10:56:28;;;;;;;14.43;11.70;;;31.90;99.90;;;;;;5051654;28;20044;-65
2022/08/25 10:59:18;;;;;;;12.48;11.38;;;32.10;99.90;;;;;;5068070;28;20483;-64
2022/08/25 11:02:12;;;;;;;14.02;12.10;;;32.30;99.90;;;;;;5063786;28;20510;-65
2022/08/25 11:04:47;;;;;;;13.50;12.20;;;31.70;99.90;;;;;;5063017;28;20070;-64
2022/08/25 11:07:29;;;;;;;13.90;12.40;;;32.10;99.90;;;;;;5051860;28;20107;-64
2022/08/25 11:10:06;;;;;;;14.40;12.40;;;32.50;99.90;;;;;;5066489;28;20094;-65
2022/08/25 11:12:38;;;;;;;15.10;12.32;;;32.50;99.90;;;;;;5066812;28;20060;-65
2022/08/25 11:15:30;;;;;;;13.35;12.00;;;32.60;99.90;;;;;;5068734;28;20457;-65
2022/08/25 11:18:02;;;;;;;12.65;11.55;;;33.10;99.90;;;;;;5025066;28;20045;-64
2022/08/25 11:20:42;;;;;;;12.15;11.05;;;33.00;99.90;;;;;;5095699;27;20674;-64
2022/08/25 11:23:18;;;;;;;13.77;12.18;;;33.00;99.90;;;;;;5113616;27;20135;-64
2022/08/25 11:26:05;;;;;;;14.38;11.90;;;32.60;99.90;;;;;;5114367;27;20453;-63
2022/08/25 11:28:39;;;;;;;13.65;12.45;;;32.50;99.90;;;;;;5115722;27;20043;-65
2022/08/25 11:31:09;;;;;;;14.18;12.68;;;32.60;99.90;;;;;;5116918;27;20043;-64
2022/08/25 11:33:38;;;;;;;16.95;13.10;;;32.50;99.90;;;;;;5101682;28;20063;-65
2022/08/25 11:36:28;;;;;;;15.27;12.73;;;32.50;99.90;;;;;;5095679;27;20576;-65
2022/08/25 11:39:08;;;;;;;13.30;12.00;;;32.60;99.90;;;;;;5107169;27;20050;-63
2022/08/25 11:41:39;;;;;;;13.65;11.43;;;32.50;99.90;;;;;;5096224;28;20152;-63
2022/08/25 11:44:33;;;;;;;14.70;12.45;;;32.50;99.90;;;;;;5106851;27;20123;-64
2022/08/25 11:47:14;;;;;;;12.50;11.40;;;32.60;99.90;;;;;;5101800;27;20127;-65
2022/08/25 11:49:58;;;;;;;14.77;12.15;;;32.50;99.90;;;;;;5085767;28;20092;-65
2022/08/25 11:52:31;;;;;;;14.73;12.50;;;32.30;99.90;;;;;;5107544;27;20534;-64
2022/08/25 11:55:14;;;;;;;14.05;12.38;;;31.80;99.90;;;;;;5100181;27;20058;-65
2022/08/25 11:57:45;;;;;;;13.40;12.02;;;31.90;99.90;;;;;;5112730;27;20071;-64
2022/08/25 12:00:35;;;;;;;13.68;11.90;;;32.10;99.90;;;;;;5103224;27;20132;-64
2022/08/25 12:03:33;;;;;;;13.57;12.15;;;32.20;99.90;;;;;;5119102;27;20110;-64
2022/08/25 12:06:33;;;;;;;12.85;11.63;;;32.00;99.90;;;;;;5098709;27;20393;-64
2022/08/25 12:09:01;;;;;;;12.75;11.45;;;32.10;99.90;;;;;;5079796;28;20130;-64
2022/08/25 12:11:38;;;;;;;12.60;11.38;;;32.30;99.90;;;;;;5092015;27;20059;-66
2022/08/25 12:14:27;;;;;;;14.20;12.80;;;32.30;99.90;;;;;;5104817;27;20118;-67
2022/08/25 12:16:55;;;;;;;13.02;11.65;;;32.60;99.90;;;;;;5105297;28;20507;-67
2022/08/25 12:19:34;;;;;;;12.57;11.27;;;32.30;99.90;;;;;;5096424;28;20509;-67
2022/08/25 12:22:02;;;;;;;12.55;11.35;;;32.30;99.90;;;;;;5098652;27;20051;-67
2022/08/25 12:24:42;;;;;;;12.30;11.10;;;32.10;99.90;;;;;;5097495;28;20036;-67
2022/08/25 12:27:47;;;;;;;15.48;11.65;;;32.00;99.90;;;;;;5105715;28;20046;-67
2022/08/25 12:30:40;;;;;;;12.63;11.43;;;32.20;99.90;;;;;;5126626;28;20144;-68
2022/08/25 12:33:55;;;;;;;12.10;10.90;;;32.50;99.90;;;;;;5112330;28;20127;-67
2022/08/25 12:36:32;;;;;;;11.85;10.75;;;32.60;99.90;;;;;;5109300;27;20047;-67
2022/08/25 12:39:34;;;;;;;12.07;11.00;;;32.60;99.90;;;;;;5112129;28;20280;-67
2022/08/25 12:42:05;;;;;;;12.68;11.43;;;33.10;99.90;;;;;;5085159;28;20047;-67
2022/08/25 12:44:46;;;;;;;12.43;11.20;;;33.60;99.90;;;;;;5108777;28;20130;-67
2022/08/25 12:47:18;;;;;;;11.50;10.25;;;34.10;99.90;;;;;;5108275;28;20109;-67
2022/08/25 12:49:50;;;;;;;11.27;10.18;;;35.10;99.90;;;;;;5090938;28;20502;-67
2022/08/25 12:52:24;;;;;;;11.95;10.68;;;36.10;97.90;;;;;;5104718;28;20756;-67
2022/08/25 12:55:02;;;;;;;11.80;10.60;;;36.30;95.70;;;;;;5102188;28;20040;-67
2022/08/25 12:57:44;;;;;;;12.13;10.77;;;36.80;94.80;;;;;;5106955;28;20048;-66
2022/08/25 13:00:15;;;;;;;12.52;11.00;;;37.80;93.00;;;;;;5112151;27;20480;-66
2022/08/25 13:03:25;;;;;;;11.77;10.75;;;38.20;92.70;;;;;;5110547;27;20078;-66
2022/08/25 13:06:20;;;;;;;12.38;11.32;;;38.50;92.40;;;;;;5094070;27;20571;-67
2022/08/25 13:09:16;;;;;;;12.13;11.02;;;38.50;91.70;;;;;;5114347;27;20505;-66
2022/08/25 13:12:04;;;;;;;12.30;11.02;;;38.90;91.00;;;;;;5113584;27;20086;-67
2022/08/25 13:14:38;;;;;;;12.65;11.35;;;39.50;90.00;;;;;;5097559;27;20083;-67
2022/08/25 13:17:07;;;;;;;11.77;10.73;;;39.70;88.90;;;;;;5106014;27;20131;-66